Chester, Oklahoma
Current Conditions -  °F | °C
As of 1:55 AM on Tuesday 21 Oct 2014 (Local Time) from KWWR Reporting Station
Scattered Clouds Scattered Clouds  
Wind Chill: 63°   Ceiling: Unl
Heat Index: 63°   Visibility: 10mi
Dew Point: 59°   Wind: 5mph
Humidity: 88%   Direction: 110°ESE
Pressure: 30.09"   Gusts: NA
Location:  36.22°N, 98.92°W
Report Text: KWWR 210655Z AUTO 11004KT 10SM SCT050 17/15 A3009 RMK AO2
Loading
Personal Weather Stations






























Interactive Weather Map
Tropical Storm Tracking
New forecast layout! Learn more

10-Day Weather Forecast

Advertisements
Track Severe Weather on mobile